sensor_id;sensor_type;location;lat;lon;timestamp;P1;durP1;ratioP1;P2;durP2;ratioP2
72785;SDS011;60902;53.876;10.674;2022-11-20T00:00:07;5.25;;;2.45;;
72785;SDS011;60902;53.876;10.674;2022-11-20T00:00:21;5.90;;;2.60;;
72785;SDS011;60902;53.876;10.674;2022-11-20T00:00:33;5.82;;;2.63;;
72785;SDS011;60902;53.876;10.674;2022-11-20T00:00:44;4.60;;;2.50;;
72785;SDS011;60902;53.876;10.674;2022-11-20T00:00:56;4.57;;;2.42;;
72785;SDS011;60902;53.876;10.674;2022-11-20T00:01:08;4.80;;;2.47;;
72785;SDS011;60902;53.876;10.674;2022-11-20T00:01:20;4.93;;;2.60;;
72785;SDS011;60902;53.876;10.674;2022-11-20T00:01:33;4.75;;;2.60;;
72785;SDS011;60902;53.876;10.674;2022-11-20T00:01:44;4.75;;;2.70;;
72785;SDS011;60902;53.876;10.674;2022-11-20T00:01:56;5.00;;;2.60;;
72785;SDS011;60902;53.876;10.674;2022-11-20T00:02:07;5.88;;;2.63;;
72785;SDS011;60902;53.876;10.674;2022-11-20T00:02:18;5.95;;;2.60;;
72785;SDS011;60902;53.876;10.674;2022-11-20T00:02:29;5.50;;;2.35;;
72785;SDS011;60902;53.876;10.674;2022-11-20T00:02:40;4.95;;;2.40;;
72785;SDS011;60902;53.876;10.674;2022-11-20T00:02:51;4.90;;;2.55;;
72785;SDS011;60902;53.876;10.674;2022-11-20T00:03:02;4.93;;;2.57;;
72785;SDS011;60902;53.876;10.674;2022-11-20T00:03:13;5.30;;;2.50;;
72785;SDS011;60902;53.876;10.674;2022-11-20T00:03:24;5.35;;;2.65;;
72785;SDS011;60902;53.876;10.674;2022-11-20T00:03:36;5.47;;;2.85;;
72785;SDS011;60902;53.876;10.674;2022-11-20T00:03:47;5.53;;;2.83;;
72785;SDS011;60902;53.876;10.674;2022-11-20T00:03:59;5.30;;;2.73;;
72785;SDS011;60902;53.876;10.674;2022-11-20T00:04:10;5.33;;;2.67;;
72785;SDS011;60902;53.876;10.674;2022-11-20T00:04:21;5.00;;;2.53;;
72785;SDS011;60902;53.876;10.674;2022-11-20T00:04:32;4.93;;;2.58;;
72785;SDS011;60902;53.876;10.674;2022-11-20T00:04:44;4.95;;;2.42;;
72785;SDS011;60902;53.876;10.674;2022-11-20T00:04:56;5.15;;;2.85;;
72785;SDS011;60902;53.876;10.674;2022-11-20T00:05:08;5.32;;;2.95;;
72785;SDS011;60902;53.876;10.674;2022-11-20T00:05:19;5.30;;;2.75;;
72785;SDS011;60902;53.876;10.674;2022-11-20T00:05:32;5.50;;;2.72;;
72785;SDS011;60902;53.876;10.674;2022-11-20T00:05:43;5.28;;;2.60;;
72785;SDS011;60902;53.876;10.674;2022-11-20T00:05:58;5.15;;;2.75;;
72785;SDS011;60902;53.876;10.674;2022-11-20T00:06:10;4.90;;;2.60;;
72785;SDS011;60902;53.876;10.674;2022-11-20T00:06:24;4.82;;;2.63;;
72785;SDS011;60902;53.876;10.674;2022-11-20T00:06:36;5.28;;;2.67;;
72785;SDS011;60902;53.876;10.674;2022-11-20T00:06:47;5.05;;;2.50;;
72785;SDS011;60902;53.876;10.674;2022-11-20T00:06:58;5.20;;;2.60;;
72785;SDS011;60902;53.876;10.674;2022-11-20T00:07:09;4.78;;;2.42;;
72785;SDS011;60902;53.876;10.674;2022-11-20T00:07:20;5.40;;;2.60;;
72785;SDS011;60902;53.876;10.674;2022-11-20T00:07:30;5.20;;;2.50;;
72785;SDS011;60902;53.876;10.674;2022-11-20T00:07:41;5.43;;;2.72;;
72785;SDS011;60902;53.876;10.674;2022-11-20T00:07:53;4.82;;;2.63;;
72785;SDS011;60902;53.876;10.674;2022-11-20T00:08:04;4.70;;;2.55;;
72785;SDS011;60902;53.876;10.674;2022-11-20T00:08:15;4.65;;;2.47;;
72785;SDS011;60902;53.876;10.674;2022-11-20T00:08:26;4.93;;;2.50;;
72785;SDS011;60902;53.876;10.674;2022-11-20T00:08:37;5.10;;;2.60;;
72785;SDS011;60902;53.876;10.674;2022-11-20T00:08:48;5.07;;;2.65;;
72785;SDS011;60902;53.876;10.674;2022-11-20T00:09:00;4.93;;;2.53;;
72785;SDS011;60902;53.876;10.674;2022-11-20T00:09:12;4.95;;;2.45;;
72785;SDS011;60902;53.876;10.674;2022-11-20T00:09:23;5.07;;;2.40;;
72785;SDS011;60902;53.876;10.674;2022-11-20T00:09:35;5.05;;;2.63;;
72785;SDS011;60902;53.876;10.674;2022-11-20T00:09:46;4.82;;;2.55;;
72785;SDS011;60902;53.876;10.674;2022-11-20T00:09:58;5.10;;;2.70;;
72785;SDS011;60902;53.876;10.674;2022-11-20T00:10:09;5.00;;;2.58;;
72785;SDS011;60902;53.876;10.674;2022-11-20T00:10:19;5.28;;;2.63;;
72785;SDS011;60902;53.876;10.674;2022-11-20T00:10:31;4.95;;;2.42;;
72785;SDS011;60902;53.876;10.674;2022-11-20T00:10:42;5.00;;;2.50;;
72785;SDS011;60902;53.876;10.674;2022-11-20T00:10:53;4.53;;;2.33;;
72785;SDS011;60902;53.876;10.674;2022-11-20T00:11:04;4.97;;;2.53;;
72785;SDS011;60902;53.876;10.674;2022-11-20T00:11:17;5.03;;;2.60;;
72785;SDS011;60902;53.876;10.674;2022-11-20T00:11:30;5.63;;;2.58;;
72785;SDS011;60902;53.876;10.674;2022-11-20T00:11:42;5.53;;;2.67;;
72785;SDS011;60902;53.876;10.674;2022-11-20T00:11:53;5.05;;;2.92;;
72785;SDS011;60902;53.876;10.674;2022-11-20T00:12:04;5.03;;;2.97;;
72785;SDS011;60902;53.876;10.674;2022-11-20T00:12:15;5.03;;;2.75;;
72785;SDS011;60902;53.876;10.674;2022-11-20T00:12:26;4.95;;;2.33;;
72785;SDS011;60902;53.876;10.674;2022-11-20T00:12:37;4.85;;;2.30;;
72785;SDS011;60902;53.876;10.674;2022-11-20T00:12:48;5.13;;;2.40;;
72785;SDS011;60902;53.876;10.674;2022-11-20T00:13:00;4.93;;;2.28;;
72785;SDS011;60902;53.876;10.674;2022-11-20T00:13:11;4.63;;;2.20;;
72785;SDS011;60902;53.876;10.674;2022-11-20T00:13:22;4.60;;;2.10;;
72785;SDS011;60902;53.876;10.674;2022-11-20T00:13:33;4.70;;;2.20;;
72785;SDS011;60902;53.876;10.674;2022-11-20T00:13:44;4.97;;;2.20;;
72785;SDS011;60902;53.876;10.674;2022-11-20T00:13:57;5.00;;;2.40;;
72785;SDS011;60902;53.876;10.674;2022-11-20T00:14:09;4.78;;;2.42;;
72785;SDS011;60902;53.876;10.674;2022-11-20T00:14:20;4.78;;;2.40;;
72785;SDS011;60902;53.876;10.674;2022-11-20T00:14:31;4.82;;;2.25;;
72785;SDS011;60902;53.876;10.674;2022-11-20T00:14:42;5.20;;;2.50;;
72785;SDS011;60902;53.876;10.674;2022-11-20T00:14:54;4.60;;;2.22;;
72785;SDS011;60902;53.876;10.674;2022-11-20T00:15:06;4.25;;;2.15;;
72785;SDS011;60902;53.876;10.674;2022-11-20T00:15:18;4.97;;;2.47;;
72785;SDS011;60902;53.876;10.674;2022-11-20T00:15:30;5.25;;;2.60;;
72785;SDS011;60902;53.876;10.674;2022-11-20T00:15:40;5.32;;;2.47;;
72785;SDS011;60902;53.876;10.674;2022-11-20T00:15:56;5.57;;;2.35;;
72785;SDS011;60902;53.876;10.674;2022-11-20T00:16:09;5.32;;;2.28;;
72785;SDS011;60902;53.876;10.674;2022-11-20T00:16:21;5.10;;;2.47;;
72785;SDS011;60902;53.876;10.674;2022-11-20T00:16:35;5.22;;;2.60;;
72785;SDS011;60902;53.876;10.674;2022-11-20T00:16:46;4.75;;;2.42;;
72785;SDS011;60902;53.876;10.674;2022-11-20T00:16:57;4.70;;;2.40;;
72785;SDS011;60902;53.876;10.674;2022-11-20T00:17:08;4.80;;;2.20;;
72785;SDS011;60902;53.876;10.674;2022-11-20T00:17:19;5.07;;;2.45;;
72785;SDS011;60902;53.876;10.674;2022-11-20T00:17:29;4.95;;;2.50;;
72785;SDS011;60902;53.876;10.674;2022-11-20T00:17:40;5.00;;;2.70;;
72785;SDS011;60902;53.876;10.674;2022-11-20T00:17:51;5.10;;;2.47;;
72785;SDS011;60902;53.876;10.674;2022-11-20T00:18:02;4.90;;;2.40;;
72785;SDS011;60902;53.876;10.674;2022-11-20T00:18:14;4.72;;;2.38;;
72785;SDS011;60902;53.876;10.674;2022-11-20T00:18:25;4.72;;;2.50;;
72785;SDS011;60902;53.876;10.674;2022-11-20T00:18:36;5.05;;;2.30;;
72785;SDS011;60902;53.876;10.674;2022-11-20T00:18:47;5.20;;;2.40;;
72785;SDS011;60902;53.876;10.674;2022-11-20T00:18:58;5.07;;;2.55;;
72785;SDS011;60902;53.876;10.674;2022-11-20T00:19:09;5.07;;;2.50;;
72785;SDS011;60902;53.876;10.674;2022-11-20T00:19:20;5.05;;;2.60;;
72785;SDS011;60902;53.876;10.674;2022-11-20T00:19:32;4.97;;;2.55;;
72785;SDS011;60902;53.876;10.674;2022-11-20T00:19:43;5.32;;;2.65;;
72785;SDS011;60902;53.876;10.674;2022-11-20T00:19:54;5.10;;;2.40;;
72785;SDS011;60902;53.876;10.674;2022-11-20T00:20:05;4.88;;;2.30;;
72785;SDS011;60902;53.876;10.674;2022-11-20T00:20:16;4.65;;;2.50;;
72785;SDS011;60902;53.876;10.674;2022-11-20T00:20:27;4.80;;;2.70;;
72785;SDS011;60902;53.876;10.674;2022-11-20T00:20:39;4.82;;;2.47;;
72785;SDS011;60902;53.876;10.674;2022-11-20T00:20:50;4.60;;;2.42;;
72785;SDS011;60902;53.876;10.674;2022-11-20T00:21:01;4.38;;;2.28;;
72785;SDS011;60902;53.876;10.674;2022-11-20T00:21:15;4.55;;;2.50;;
72785;SDS011;60902;53.876;10.674;2022-11-20T00:21:27;4.60;;;2.63;;
72785;SDS011;60902;53.876;10.674;2022-11-20T00:21:38;4.72;;;2.50;;
72785;SDS011;60902;53.876;10.674;2022-11-20T00:21:49;4.85;;;2.47;;
72785;SDS011;60902;53.876;10.674;2022-11-20T00:22:01;4.72;;;2.45;;
72785;SDS011;60902;53.876;10.674;2022-11-20T00:22:12;4.77;;;2.43;;
72785;SDS011;60902;53.876;10.674;2022-11-20T00:22:24;4.93;;;2.55;;
72785;SDS011;60902;53.876;10.674;2022-11-20T00:22:35;5.18;;;2.38;;
72785;SDS011;60902;53.876;10.674;2022-11-20T00:22:46;4.85;;;2.30;;
72785;SDS011;60902;53.876;10.674;2022-11-20T00:22:57;4.95;;;2.40;;
72785;SDS011;60902;53.876;10.674;2022-11-20T00:23:08;5.10;;;2.50;;
72785;SDS011;60902;53.876;10.674;2022-11-20T00:23:19;5.43;;;2.63;;
72785;SDS011;60902;53.876;10.674;2022-11-20T00:23:31;5.45;;;2.78;;
72785;SDS011;60902;53.876;10.674;2022-11-20T00:23:42;5.22;;;2.80;;
72785;SDS011;60902;53.876;10.674;2022-11-20T00:23:54;5.00;;;2.60;;
72785;SDS011;60902;53.876;10.674;2022-11-20T00:24:08;4.88;;;2.53;;
72785;SDS011;60902;53.876;10.674;2022-11-20T00:24:19;4.85;;;2.40;;
72785;SDS011;60902;53.876;10.674;2022-11-20T00:24:30;4.57;;;2.28;;
72785;SDS011;60902;53.876;10.674;2022-11-20T00:24:42;5.07;;;2.33;;
72785;SDS011;60902;53.876;10.674;2022-11-20T00:24:53;5.18;;;2.47;;
72785;SDS011;60902;53.876;10.674;2022-11-20T00:25:05;5.13;;;2.53;;
72785;SDS011;60902;53.876;10.674;2022-11-20T00:25:17;4.97;;;2.58;;
72785;SDS011;60902;53.876;10.674;2022-11-20T00:25:28;4.95;;;2.50;;
72785;SDS011;60902;53.876;10.674;2022-11-20T00:25:39;4.85;;;2.47;;
72785;SDS011;60902;53.876;10.674;2022-11-20T00:25:50;4.78;;;2.33;;
72785;SDS011;60902;53.876;10.674;2022-11-20T00:26:01;4.83;;;2.53;;
72785;SDS011;60902;53.876;10.674;2022-11-20T00:26:14;5.18;;;2.60;;
72785;SDS011;60902;53.876;10.674;2022-11-20T00:26:28;4.85;;;2.50;;
72785;SDS011;60902;53.876;10.674;2022-11-20T00:26:39;5.25;;;2.40;;
72785;SDS011;60902;53.876;10.674;2022-11-20T00:26:50;5.00;;;2.50;;
72785;SDS011;60902;53.876;10.674;2022-11-20T00:27:01;4.88;;;2.47;;
72785;SDS011;60902;53.876;10.674;2022-11-20T00:27:11;5.15;;;2.47;;
72785;SDS011;60902;53.876;10.674;2022-11-20T00:27:23;5.20;;;2.33;;
72785;SDS011;60902;53.876;10.674;2022-11-20T00:27:34;5.10;;;2.27;;
72785;SDS011;60902;53.876;10.674;2022-11-20T00:27:45;5.15;;;2.30;;
72785;SDS011;60902;53.876;10.674;2022-11-20T00:27:56;5.97;;;2.47;;
72785;SDS011;60902;53.876;10.674;2022-11-20T00:28:07;6.10;;;2.75;;
72785;SDS011;60902;53.876;10.674;2022-11-20T00:28:18;5.75;;;2.80;;
72785;SDS011;60902;53.876;10.674;2022-11-20T00:28:29;4.80;;;2.50;;
72785;SDS011;60902;53.876;10.674;2022-11-20T00:28:40;5.20;;;2.55;;
72785;SDS011;60902;53.876;10.674;2022-11-20T00:28:52;5.00;;;2.50;;
72785;SDS011;60902;53.876;10.674;2022-11-20T00:29:04;4.90;;;2.60;;
72785;SDS011;60902;53.876;10.674;2022-11-20T00:29:16;5.10;;;2.50;;
72785;SDS011;60902;53.876;10.674;2022-11-20T00:29:27;4.97;;;2.40;;
72785;SDS011;60902;53.876;10.674;2022-11-20T00:29:38;4.90;;;2.38;;
72785;SDS011;60902;53.876;10.674;2022-11-20T00:29:50;5.00;;;2.30;;
72785;SDS011;60902;53.876;10.674;2022-11-20T00:30:02;4.85;;;2.30;;
72785;SDS011;60902;53.876;10.674;2022-11-20T00:30:15;5.03;;;2.50;;
72785;SDS011;60902;53.876;10.674;2022-11-20T00:30:26;5.00;;;2.58;;
72785;SDS011;60902;53.876;10.674;2022-11-20T00:30:38;4.78;;;2.53;;
72785;SDS011;60902;53.876;10.674;2022-11-20T00:30:49;4.68;;;2.42;;
72785;SDS011;60902;53.876;10.674;2022-11-20T00:31:01;4.68;;;2.33;;
72785;SDS011;60902;53.876;10.674;2022-11-20T00:31:13;4.60;;;2.20;;
72785;SDS011;60902;53.876;10.674;2022-11-20T00:31:26;4.55;;;2.28;;
72785;SDS011;60902;53.876;10.674;2022-11-20T00:31:37;5.05;;;2.45;;
72785;SDS011;60902;53.876;10.674;2022-11-20T00:31:48;5.45;;;2.38;;
72785;SDS011;60902;53.876;10.674;2022-11-20T00:32:00;5.05;;;2.17;;
72785;SDS011;60902;53.876;10.674;2022-11-20T00:32:11;4.65;;;2.20;;
72785;SDS011;60902;53.876;10.674;2022-11-20T00:32:22;4.55;;;2.33;;
72785;SDS011;60902;53.876;10.674;2022-11-20T00:32:33;4.50;;;2.30;;
72785;SDS011;60902;53.876;10.674;2022-11-20T00:32:44;4.60;;;2.40;;
72785;SDS011;60902;53.876;10.674;2022-11-20T00:32:56;4.82;;;2.78;;
72785;SDS011;60902;53.876;10.674;2022-11-20T00:33:07;5.07;;;2.92;;
72785;SDS011;60902;53.876;10.674;2022-11-20T00:33:18;5.15;;;2.92;;
72785;SDS011;60902;53.876;10.674;2022-11-20T00:33:30;5.10;;;2.60;;
72785;SDS011;60902;53.876;10.674;2022-11-20T00:33:41;5.13;;;2.63;;
72785;SDS011;60902;53.876;10.674;2022-11-20T00:33:53;5.00;;;2.70;;
72785;SDS011;60902;53.876;10.674;2022-11-20T00:34:04;4.95;;;2.65;;
72785;SDS011;60902;53.876;10.674;2022-11-20T00:34:15;4.75;;;2.35;;
72785;SDS011;60902;53.876;10.674;2022-11-20T00:34:26;4.85;;;2.25;;
72785;SDS011;60902;53.876;10.674;2022-11-20T00:34:38;4.88;;;2.47;;
72785;SDS011;60902;53.876;10.674;2022-11-20T00:34:49;5.13;;;2.70;;
72785;SDS011;60902;53.876;10.674;2022-11-20T00:35:00;5.30;;;2.70;;
72785;SDS011;60902;53.876;10.674;2022-11-20T00:35:12;5.10;;;2.58;;
72785;SDS011;60902;53.876;10.674;2022-11-20T00:35:23;4.43;;;2.30;;
72785;SDS011;60902;53.876;10.674;2022-11-20T00:35:33;4.40;;;2.30;;
72785;SDS011;60902;53.876;10.674;2022-11-20T00:35:44;4.90;;;2.40;;
72785;SDS011;60902;53.876;10.674;2022-11-20T00:35:58;5.20;;;2.47;;
72785;SDS011;60902;53.876;10.674;2022-11-20T00:36:12;5.22;;;2.60;;
72785;SDS011;60902;53.876;10.674;2022-11-20T00:36:26;5.03;;;2.60;;
72785;SDS011;60902;53.876;10.674;2022-11-20T00:36:38;4.82;;;2.47;;
72785;SDS011;60902;53.876;10.674;2022-11-20T00:36:49;4.82;;;2.40;;
72785;SDS011;60902;53.876;10.674;2022-11-20T00:36:59;4.80;;;2.33;;
72785;SDS011;60902;53.876;10.674;2022-11-20T00:37:10;5.00;;;2.38;;
72785;SDS011;60902;53.876;10.674;2022-11-20T00:37:21;5.07;;;2.50;;
72785;SDS011;60902;53.876;10.674;2022-11-20T00:37:33;5.30;;;2.67;;
72785;SDS011;60902;53.876;10.674;2022-11-20T00:37:44;5.50;;;2.72;;
72785;SDS011;60902;53.876;10.674;2022-11-20T00:37:55;5.03;;;2.58;;
72785;SDS011;60902;53.876;10.674;2022-11-20T00:38:06;4.90;;;2.53;;
72785;SDS011;60902;53.876;10.674;2022-11-20T00:38:17;4.67;;;2.40;;
72785;SDS011;60902;53.876;10.674;2022-11-20T00:38:28;5.07;;;2.33;;
72785;SDS011;60902;53.876;10.674;2022-11-20T00:38:39;5.00;;;2.47;;
72785;SDS011;60902;53.876;10.674;2022-11-20T00:38:51;4.93;;;2.53;;
72785;SDS011;60902;53.876;10.674;2022-11-20T00:39:03;4.78;;;2.45;;
72785;SDS011;60902;53.876;10.674;2022-11-20T00:39:15;5.13;;;2.42;;
72785;SDS011;60902;53.876;10.674;2022-11-20T00:39:26;5.45;;;2.60;;
72785;SDS011;60902;53.876;10.674;2022-11-20T00:39:37;5.28;;;2.50;;
72785;SDS011;60902;53.876;10.674;2022-11-20T00:39:48;4.85;;;2.33;;
72785;SDS011;60902;53.876;10.674;2022-11-20T00:39:58;5.07;;;2.27;;
72785;SDS011;60902;53.876;10.674;2022-11-20T00:40:11;5.10;;;2.40;;
72785;SDS011;60902;53.876;10.674;2022-11-20T00:40:23;4.70;;;2.40;;
72785;SDS011;60902;53.876;10.674;2022-11-20T00:40:33;4.60;;;2.28;;
72785;SDS011;60902;53.876;10.674;2022-11-20T00:40:44;4.70;;;2.20;;
72785;SDS011;60902;53.876;10.674;2022-11-20T00:40:56;4.80;;;2.20;;
72785;SDS011;60902;53.876;10.674;2022-11-20T00:41:08;4.80;;;2.30;;
72785;SDS011;60902;53.876;10.674;2022-11-20T00:41:22;4.75;;;2.50;;
72785;SDS011;60902;53.876;10.674;2022-11-20T00:41:34;4.97;;;2.42;;
72785;SDS011;60902;53.876;10.674;2022-11-20T00:41:45;4.68;;;2.25;;
72785;SDS011;60902;53.876;10.674;2022-11-20T00:41:56;4.43;;;2.30;;
72785;SDS011;60902;53.876;10.674;2022-11-20T00:42:07;4.30;;;2.30;;
72785;SDS011;60902;53.876;10.674;2022-11-20T00:42:19;4.43;;;2.30;;
72785;SDS011;60902;53.876;10.674;2022-11-20T00:42:30;4.68;;;2.42;;
72785;SDS011;60902;53.876;10.674;2022-11-20T00:42:42;5.00;;;2.55;;
72785;SDS011;60902;53.876;10.674;2022-11-20T00:42:54;5.00;;;2.47;;
72785;SDS011;60902;53.876;10.674;2022-11-20T00:43:05;4.90;;;2.55;;
72785;SDS011;60902;53.876;10.674;2022-11-20T00:43:16;5.00;;;2.58;;
72785;SDS011;60902;53.876;10.674;2022-11-20T00:43:27;5.15;;;2.65;;
72785;SDS011;60902;53.876;10.674;2022-11-20T00:43:38;4.90;;;2.35;;
72785;SDS011;60902;53.876;10.674;2022-11-20T00:43:51;4.82;;;2.25;;
72785;SDS011;60902;53.876;10.674;2022-11-20T00:44:04;5.00;;;2.40;;
72785;SDS011;60902;53.876;10.674;2022-11-20T00:44:15;5.13;;;2.40;;
72785;SDS011;60902;53.876;10.674;2022-11-20T00:44:26;5.03;;;2.30;;
72785;SDS011;60902;53.876;10.674;2022-11-20T00:44:37;5.03;;;2.30;;
72785;SDS011;60902;53.876;10.674;2022-11-20T00:44:47;4.70;;;2.40;;
72785;SDS011;60902;53.876;10.674;2022-11-20T00:44:58;4.57;;;2.20;;
72785;SDS011;60902;53.876;10.674;2022-11-20T00:45:09;4.85;;;2.28;;
72785;SDS011;60902;53.876;10.674;2022-11-20T00:45:20;5.00;;;2.40;;
72785;SDS011;60902;53.876;10.674;2022-11-20T00:45:32;5.07;;;2.60;;
72785;SDS011;60902;53.876;10.674;2022-11-20T00:45:43;4.72;;;2.50;;
72785;SDS011;60902;53.876;10.674;2022-11-20T00:45:56;4.85;;;2.55;;
72785;SDS011;60902;53.876;10.674;2022-11-20T00:46:08;4.80;;;2.53;;
72785;SDS011;60902;53.876;10.674;2022-11-20T00:46:22;4.82;;;2.38;;
72785;SDS011;60902;53.876;10.674;2022-11-20T00:46:34;4.93;;;2.42;;
72785;SDS011;60902;53.876;10.674;2022-11-20T00:46:45;5.00;;;2.60;;
72785;SDS011;60902;53.876;10.674;2022-11-20T00:46:56;4.75;;;2.50;;
72785;SDS011;60902;53.876;10.674;2022-11-20T00:47:07;4.50;;;2.45;;
72785;SDS011;60902;53.876;10.674;2022-11-20T00:47:19;4.70;;;2.50;;
72785;SDS011;60902;53.876;10.674;2022-11-20T00:47:30;4.80;;;2.40;;
72785;SDS011;60902;53.876;10.674;2022-11-20T00:47:41;5.25;;;2.33;;
72785;SDS011;60902;53.876;10.674;2022-11-20T00:47:52;5.20;;;2.30;;
72785;SDS011;60902;53.876;10.674;2022-11-20T00:48:03;5.18;;;2.30;;
72785;SDS011;60902;53.876;10.674;2022-11-20T00:48:14;5.20;;;2.33;;
72785;SDS011;60902;53.876;10.674;2022-11-20T00:48:25;5.40;;;2.40;;
72785;SDS011;60902;53.876;10.674;2022-11-20T00:48:37;5.40;;;2.50;;
72785;SDS011;60902;53.876;10.674;2022-11-20T00:48:49;5.10;;;2.50;;
72785;SDS011;60902;53.876;10.674;2022-11-20T00:49:00;5.13;;;2.50;;
72785;SDS011;60902;53.876;10.674;2022-11-20T00:49:11;4.70;;;2.30;;
72785;SDS011;60902;53.876;10.674;2022-11-20T00:49:22;5.30;;;2.42;;
72785;SDS011;60902;53.876;10.674;2022-11-20T00:49:32;5.15;;;2.50;;
72785;SDS011;60902;53.876;10.674;2022-11-20T00:49:44;5.13;;;2.50;;
72785;SDS011;60902;53.876;10.674;2022-11-20T00:49:55;4.60;;;2.30;;
72785;SDS011;60902;53.876;10.674;2022-11-20T00:50:06;5.00;;;2.53;;
72785;SDS011;60902;53.876;10.674;2022-11-20T00:50:18;5.47;;;2.58;;
72785;SDS011;60902;53.876;10.674;2022-11-20T00:50:28;5.18;;;2.45;;
72785;SDS011;60902;53.876;10.674;2022-11-20T00:50:40;5.10;;;2.33;;
72785;SDS011;60902;53.876;10.674;2022-11-20T00:50:51;4.75;;;2.35;;
72785;SDS011;60902;53.876;10.674;2022-11-20T00:51:02;5.00;;;2.40;;
72785;SDS011;60902;53.876;10.674;2022-11-20T00:51:16;5.13;;;2.40;;
72785;SDS011;60902;53.876;10.674;2022-11-20T00:51:28;4.88;;;2.35;;
72785;SDS011;60902;53.876;10.674;2022-11-20T00:51:39;4.47;;;2.28;;
72785;SDS011;60902;53.876;10.674;2022-11-20T00:51:50;4.55;;;2.30;;
72785;SDS011;60902;53.876;10.674;2022-11-20T00:52:00;5.20;;;2.50;;
72785;SDS011;60902;53.876;10.674;2022-11-20T00:52:11;5.32;;;2.60;;
72785;SDS011;60902;53.876;10.674;2022-11-20T00:52:22;5.40;;;2.60;;
72785;SDS011;60902;53.876;10.674;2022-11-20T00:52:33;5.32;;;2.45;;
72785;SDS011;60902;53.876;10.674;2022-11-20T00:52:44;5.25;;;2.40;;
72785;SDS011;60902;53.876;10.674;2022-11-20T00:52:56;4.85;;;2.33;;
72785;SDS011;60902;53.876;10.674;2022-11-20T00:53:07;4.60;;;2.33;;
72785;SDS011;60902;53.876;10.674;2022-11-20T00:53:17;5.03;;;2.50;;
72785;SDS011;60902;53.876;10.674;2022-11-20T00:53:29;5.20;;;2.70;;
72785;SDS011;60902;53.876;10.674;2022-11-20T00:53:41;5.53;;;2.60;;
72785;SDS011;60902;53.876;10.674;2022-11-20T00:53:54;5.68;;;2.55;;
72785;SDS011;60902;53.876;10.674;2022-11-20T00:54:09;5.30;;;2.70;;
72785;SDS011;60902;53.876;10.674;2022-11-20T00:54:20;4.90;;;2.50;;
72785;SDS011;60902;53.876;10.674;2022-11-20T00:54:31;4.82;;;2.45;;
72785;SDS011;60902;53.876;10.674;2022-11-20T00:54:42;4.93;;;2.40;;
72785;SDS011;60902;53.876;10.674;2022-11-20T00:54:53;4.80;;;2.45;;
72785;SDS011;60902;53.876;10.674;2022-11-20T00:55:04;4.60;;;2.30;;
72785;SDS011;60902;53.876;10.674;2022-11-20T00:55:17;4.40;;;2.33;;
72785;SDS011;60902;53.876;10.674;2022-11-20T00:55:28;4.50;;;2.25;;
72785;SDS011;60902;53.876;10.674;2022-11-20T00:55:39;4.65;;;2.47;;
72785;SDS011;60902;53.876;10.674;2022-11-20T00:55:54;4.72;;;2.30;;
72785;SDS011;60902;53.876;10.674;2022-11-20T00:56:07;4.88;;;2.28;;
72785;SDS011;60902;53.876;10.674;2022-11-20T00:56:21;4.88;;;2.35;;
72785;SDS011;60902;53.876;10.674;2022-11-20T00:56:32;4.90;;;2.53;;
72785;SDS011;60902;53.876;10.674;2022-11-20T00:56:43;4.75;;;2.53;;
72785;SDS011;60902;53.876;10.674;2022-11-20T00:56:54;4.65;;;2.55;;
72785;SDS011;60902;53.876;10.674;2022-11-20T00:57:06;4.55;;;2.50;;
72785;SDS011;60902;53.876;10.674;2022-11-20T00:57:17;4.85;;;2.35;;
72785;SDS011;60902;53.876;10.674;2022-11-20T00:57:28;4.90;;;2.47;;
72785;SDS011;60902;53.876;10.674;2022-11-20T00:57:39;5.03;;;2.50;;
72785;SDS011;60902;53.876;10.674;2022-11-20T00:57:50;4.80;;;2.55;;
72785;SDS011;60902;53.876;10.674;2022-11-20T00:58:01;4.80;;;2.63;;
72785;SDS011;60902;53.876;10.674;2022-11-20T00:58:11;4.88;;;2.70;;
72785;SDS011;60902;53.876;10.674;2022-11-20T00:58:24;4.88;;;2.50;;
72785;SDS011;60902;53.876;10.674;2022-11-20T00:58:36;4.45;;;2.05;;
72785;SDS011;60902;53.876;10.674;2022-11-20T00:58:49;4.40;;;2.17;;
72785;SDS011;60902;53.876;10.674;2022-11-20T00:59:00;4.57;;;2.35;;
72785;SDS011;60902;53.876;10.674;2022-11-20T00:59:11;4.70;;;2.50;;
72785;SDS011;60902;53.876;10.674;2022-11-20T00:59:22;4.72;;;2.40;;
72785;SDS011;60902;53.876;10.674;2022-11-20T00:59:33;4.57;;;2.47;;
72785;SDS011;60902;53.876;10.674;2022-11-20T00:59:44;4.80;;;2.55;;
72785;SDS011;60902;53.876;10.674;2022-11-20T00:59:55;4.53;;;2.42;;
72785;SDS011;60902;53.876;10.674;2022-11-20T01:00:06;4.53;;;2.40;;
72785;SDS011;60902;53.876;10.674;2022-11-20T01:00:19;4.65;;;2.35;;
72785;SDS011;60902;53.876;10.674;2022-11-20T01:00:30;4.70;;;2.47;;
72785;SDS011;60902;53.876;10.674;2022-11-20T01:00:42;4.65;;;2.50;;
72785;SDS011;60902;53.876;10.674;2022-11-20T01:00:53;4.47;;;2.25;;
72785;SDS011;60902;53.876;10.674;2022-11-20T01:01:11;5.30;;;2.40;;
72785;SDS011;60902;53.876;10.674;2022-11-20T01:01:24;5.57;;;2.60;;
72785;SDS011;60902;53.876;10.674;2022-11-20T01:01:36;5.05;;;2.50;;
72785;SDS011;60902;53.876;10.674;2022-11-20T01:01:49;4.97;;;2.53;;
72785;SDS011;60902;53.876;10.674;2022-11-20T01:02:00;4.90;;;2.47;;
72785;SDS011;60902;53.876;10.674;2022-11-20T01:02:11;4.63;;;2.40;;
72785;SDS011;60902;53.876;10.674;2022-11-20T01:02:22;4.40;;;2.20;;
72785;SDS011;60902;53.876;10.674;2022-11-20T01:02:34;4.78;;;2.28;;
72785;SDS011;60902;53.876;10.674;2022-11-20T01:02:44;4.80;;;2.30;;
72785;SDS011;60902;53.876;10.674;2022-11-20T01:02:56;4.72;;;2.35;;
72785;SDS011;60902;53.876;10.674;2022-11-20T01:03:07;4.30;;;2.20;;
72785;SDS011;60902;53.876;10.674;2022-11-20T01:03:18;4.95;;;2.22;;
72785;SDS011;60902;53.876;10.674;2022-11-20T01:03:30;4.85;;;2.15;;
72785;SDS011;60902;53.876;10.674;2022-11-20T01:03:45;4.30;;;2.35;;
72785;SDS011;60902;53.876;10.674;2022-11-20T01:03:57;4.65;;;2.58;;
72785;SDS011;60902;53.876;10.674;2022-11-20T01:04:10;5.30;;;2.72;;
72785;SDS011;60902;53.876;10.674;2022-11-20T01:04:21;5.50;;;2.80;;
72785;SDS011;60902;53.876;10.674;2022-11-20T01:04:32;4.90;;;2.45;;
72785;SDS011;60902;53.876;10.674;2022-11-20T01:04:42;4.82;;;2.33;;
72785;SDS011;60902;53.876;10.674;2022-11-20T01:04:55;4.82;;;2.10;;
72785;SDS011;60902;53.876;10.674;2022-11-20T01:05:06;5.00;;;2.25;;
72785;SDS011;60902;53.876;10.674;2022-11-20T01:05:17;4.78;;;2.20;;
72785;SDS011;60902;53.876;10.674;2022-11-20T01:05:28;4.72;;;2.22;;
72785;SDS011;60902;53.876;10.674;2022-11-20T01:05:39;4.45;;;2.20;;
72785;SDS011;60902;53.876;10.674;2022-11-20T01:05:50;4.30;;;2.10;;
72785;SDS011;60902;53.876;10.674;2022-11-20T01:06:01;4.60;;;2.20;;
72785;SDS011;60902;53.876;10.674;2022-11-20T01:06:13;4.72;;;2.33;;
72785;SDS011;60902;53.876;10.674;2022-11-20T01:06:27;4.75;;;2.47;;
72785;SDS011;60902;53.876;10.674;2022-11-20T01:06:40;5.03;;;2.53;;
72785;SDS011;60902;53.876;10.674;2022-11-20T01:06:51;5.10;;;2.50;;
72785;SDS011;60902;53.876;10.674;2022-11-20T01:07:03;5.18;;;2.53;;
72785;SDS011;60902;53.876;10.674;2022-11-20T01:07:14;4.72;;;2.40;;
72785;SDS011;60902;53.876;10.674;2022-11-20T01:07:25;4.68;;;2.30;;
72785;SDS011;60902;53.876;10.674;2022-11-20T01:07:36;4.85;;;2.30;;
72785;SDS011;60902;53.876;10.674;2022-11-20T01:07:46;5.10;;;2.40;;
72785;SDS011;60902;53.876;10.674;2022-11-20T01:07:59;4.95;;;2.38;;
72785;SDS011;60902;53.876;10.674;2022-11-20T01:08:10;5.10;;;2.53;;
72785;SDS011;60902;53.876;10.674;2022-11-20T01:08:21;4.88;;;2.45;;